Time,TemperatureF,DewpointF,PressureIn,WindDirection,WindDirectionDegrees,WindSpeedMPH,WindSpeedGustMPH,Humidity,HourlyPrecipIn,Conditions,Clouds,dailyrainin,SoftwareType,DateUTC
2013-09-26 00:00:00,54.7,51.5,30.02,East,90,0.0,2.0,89,0.00,,,0.00,WUHU216DAVISVP2,2013-09-26 04:00:00,
2013-09-26 00:01:00,54.7,51.5,30.02,East,90,0.0,2.0,89,0.00,,,0.00,WUHU216DAVISVP2,2013-09-26 04:01:00,
2013-09-26 00:06:00,54.8,51.9,30.02,East,90,0.0,2.0,90,0.00,,,0.00,WUHU216DAVISVP2,2013-09-26 04:06:00,
2013-09-26 00:11:00,54.9,52.0,30.02,East,84,0.0,2.0,90,0.00,,,0.00,WUHU216DAVISVP2,2013-09-26 04:11:00,
2013-09-26 00:16:00,54.9,52.3,30.02,East,84,0.0,2.0,91,0.00,,,0.00,WUHU216DAVISVP2,2013-09-26 04:16:00,
2013-09-26 00:21:00,55.0,52.4,30.02,East,84,0.0,0.0,91,0.00,,,0.00,WUHU216DAVISVP2,2013-09-26 04:21:00,
2013-09-26 00:26:00,55.1,52.5,30.02,East,84,0.0,0.0,91,0.00,,,0.00,WUHU216DAVISVP2,2013-09-26 04:26:00,
2013-09-26 00:31:00,55.1,52.5,30.02,East,82,0.0,2.0,91,0.00,,,0.00,WUHU216DAVISVP2,2013-09-26 04:31:00,
2013-09-26 00:36:00,55.2,52.9,30.02,East,82,0.0,2.0,92,0.00,,,0.00,WUHU216DAVISVP2,2013-09-26 04:36:00,
2013-09-26 00:41:00,55.3,53.0,30.02,East,82,0.0,2.0,92,0.00,,,0.00,WUHU216DAVISVP2,2013-09-26 04:41:00,
2013-09-26 00:46:00,55.3,53.0,30.02,East,82,0.0,2.0,92,0.00,,,0.00,WUHU216DAVISVP2,2013-09-26 04:46:00,
2013-09-26 00:51:00,55.2,52.9,30.01,East,83,0.0,2.0,92,0.00,,,0.00,WUHU216DAVISVP2,2013-09-26 04:51:00,
2013-09-26 00:56:00,55.2,52.9,30.01,East,99,0.0,4.0,92,0.00,,,0.00,WUHU216DAVISVP2,2013-09-26 04:56:00,
2013-09-26 01:02:00,55.1,52.8,30.01,SE,137,0.0,4.0,92,0.00,,,0.00,WUHU216DAVISVP2,2013-09-26 05:02:00,
2013-09-26 01:07:00,54.8,52.5,30.01,SE,137,0.0,4.0,92,0.00,,,0.00,WUHU216DAVISVP2,2013-09-26 05:07:00,
2013-09-26 01:12:00,54.5,52.2,30.01,SE,137,0.0,0.0,92,0.00,,,0.00,WUHU216DAVISVP2,2013-09-26 05:12:00,
2013-09-26 01:17:00,54.2,51.9,30.01,SE,137,0.0,0.0,92,0.00,,,0.00,WUHU216DAVISVP2,2013-09-26 05:17:00,
2013-09-26 01:22:00,53.9,51.9,30.01,SE,137,0.0,0.0,93,0.00,,,0.00,WUHU216DAVISVP2,2013-09-26 05:22:00,
2013-09-26 01:28:00,53.6,51.6,30.01,SE,137,0.0,0.0,93,0.00,,,0.00,WUHU216DAVISVP2,2013-09-26 05:28:00,
2013-09-26 01:33:00,53.2,51.2,30.01,SE,137,0.0,0.0,93,0.00,,,0.00,WUHU216DAVISVP2,2013-09-26 05:33:00,
2013-09-26 01:38:00,52.9,50.9,30.01,SE,137,0.0,0.0,93,0.00,,,0.00,WUHU216DAVISVP2,2013-09-26 05:38:00,
2013-09-26 01:43:00,52.6,50.6,30.01,SE,137,0.0,0.0,93,0.00,,,0.00,WUHU216DAVISVP2,2013-09-26 05:43:00,
2013-09-26 01:48:00,52.4,50.7,30.01,SE,137,0.0,0.0,94,0.00,,,0.00,WUHU216DAVISVP2,2013-09-26 05:48:00,
2013-09-26 01:53:00,52.2,50.5,30.02,SE,137,0.0,0.0,94,0.00,,,0.00,WUHU216DAVISVP2,2013-09-26 05:53:00,
2013-09-26 01:58:00,52.1,50.4,30.02,SE,137,0.0,0.0,94,0.00,,,0.00,WUHU216DAVISVP2,2013-09-26 05:58:00,
2013-09-26 02:03:00,51.9,50.2,30.02,SE,137,0.0,0.0,94,0.00,,,0.00,WUHU216DAVISVP2,2013-09-26 06:03:00,
2013-09-26 02:08:00,51.8,50.4,30.02,SE,137,0.0,0.0,95,0.00,,,0.00,WUHU216DAVISVP2,2013-09-26 06:08:00,
2013-09-26 02:13:00,51.7,50.0,30.02,SE,137,0.0,0.0,94,0.00,,,0.00,WUHU216DAVISVP2,2013-09-26 06:13:00,
2013-09-26 02:18:00,51.5,50.1,30.02,SE,137,0.0,0.0,95,0.00,,,0.00,WUHU216DAVISVP2,2013-09-26 06:18:00,
2013-09-26 02:23:00,51.4,50.0,30.02,SE,137,0.0,0.0,95,0.00,,,0.00,WUHU216DAVISVP2,2013-09-26 06:23:00,
2013-09-26 02:28:00,51.2,49.8,30.02,SE,137,0.0,0.0,95,0.00,,,0.00,WUHU216DAVISVP2,2013-09-26 06:28:00,
2013-09-26 02:33:00,51.0,49.6,30.01,SE,137,0.0,0.0,95,0.00,,,0.00,WUHU216DAVISVP2,2013-09-26 06:33:00,
2013-09-26 02:38:00,50.9,49.5,30.01,SE,137,0.0,0.0,95,0.00,,,0.00,WUHU216DAVISVP2,2013-09-26 06:38:00,
2013-09-26 02:43:00,50.7,49.3,30.02,SE,137,0.0,0.0,95,0.00,,,0.00,WUHU216DAVISVP2,2013-09-26 06:43:00,
2013-09-26 02:48:00,50.5,49.1,30.02,SE,137,0.0,0.0,95,0.00,,,0.00,WUHU216DAVISVP2,2013-09-26 06:48:00,
2013-09-26 02:53:00,50.4,49.0,30.02,SE,137,0.0,0.0,95,0.00,,,0.00,WUHU216DAVISVP2,2013-09-26 06:53:00,
2013-09-26 02:58:00,50.2,48.8,30.02,SE,137,0.0,0.0,95,0.00,,,0.00,WUHU216DAVISVP2,2013-09-26 06:58:00,
2013-09-26 03:03:00,50.0,48.6,30.01,SE,137,0.0,0.0,95,0.00,,,0.00,WUHU216DAVISVP2,2013-09-26 07:03:00,
2013-09-26 03:08:00,49.9,48.5,30.01,SE,137,0.0,0.0,95,0.00,,,0.00,WUHU216DAVISVP2,2013-09-26 07:08:00,
2013-09-26 03:13:00,49.9,48.5,30.01,SE,137,0.0,0.0,95,0.00,,,0.00,WUHU216DAVISVP2,2013-09-26 07:13:00,
2013-09-26 03:18:00,49.7,48.6,30.02,SE,137,0.0,0.0,96,0.00,,,0.00,WUHU216DAVISVP2,2013-09-26 07:18:00,
2013-09-26 03:23:00,49.6,48.5,30.02,SE,137,0.0,0.0,96,0.00,,,0.00,WUHU216DAVISVP2,2013-09-26 07:23:00,
2013-09-26 03:28:00,49.5,48.1,30.02,SE,137,0.0,0.0,95,0.00,,,0.00,WUHU216DAVISVP2,2013-09-26 07:28:00,
2013-09-26 03:33:00,49.4,48.0,30.02,SE,137,0.0,0.0,95,0.00,,,0.00,WUHU216DAVISVP2,2013-09-26 07:33:00,
2013-09-26 03:38:00,49.3,48.2,30.02,SE,137,0.0,0.0,96,0.00,,,0.00,WUHU216DAVISVP2,2013-09-26 07:38:00,
2013-09-26 03:43:00,49.3,48.2,30.02,SE,137,0.0,0.0,96,0.00,,,0.00,WUHU216DAVISVP2,2013-09-26 07:43:00,
2013-09-26 03:48:00,49.2,48.1,30.02,SE,137,0.0,0.0,96,0.00,,,0.00,WUHU216DAVISVP2,2013-09-26 07:48:00,
2013-09-26 03:53:00,49.1,48.0,30.02,SE,137,0.0,0.0,96,0.00,,,0.00,WUHU216DAVISVP2,2013-09-26 07:53:00,
2013-09-26 03:58:00,49.1,48.0,30.02,SE,137,0.0,0.0,96,0.00,,,0.00,WUHU216DAVISVP2,2013-09-26 07:58:00,
2013-09-26 04:03:00,49.1,48.0,30.02,SE,137,0.0,0.0,96,0.00,,,0.00,WUHU216DAVISVP2,2013-09-26 08:03:00,
2013-09-26 04:08:00,49.0,47.9,30.02,SE,137,0.0,0.0,96,0.00,,,0.00,WUHU216DAVISVP2,2013-09-26 08:08:00,
2013-09-26 04:13:00,48.8,47.7,30.02,SE,137,0.0,0.0,96,0.00,,,0.00,WUHU216DAVISVP2,2013-09-26 08:13:00,
2013-09-26 04:18:00,48.7,47.6,30.02,SE,137,0.0,0.0,96,0.00,,,0.00,WUHU216DAVISVP2,2013-09-26 08:18:00,
2013-09-26 04:23:00,48.6,47.5,30.02,SE,137,0.0,0.0,96,0.00,,,0.00,WUHU216DAVISVP2,2013-09-26 08:23:00,
2013-09-26 04:28:00,48.5,47.4,30.02,SE,137,0.0,0.0,96,0.00,,,0.00,WUHU216DAVISVP2,2013-09-26 08:28:00,
2013-09-26 04:33:00,48.4,47.3,30.02,SE,137,0.0,0.0,96,0.00,,,0.00,WUHU216DAVISVP2,2013-09-26 08:33:00,
2013-09-26 04:38:00,48.3,47.2,30.02,SE,137,0.0,0.0,96,0.00,,,0.00,WUHU216DAVISVP2,2013-09-26 08:38:00,
2013-09-26 04:43:00,48.3,47.2,30.02,SE,137,0.0,0.0,96,0.00,,,0.00,WUHU216DAVISVP2,2013-09-26 08:43:00,
2013-09-26 04:48:00,48.3,47.2,30.02,SE,137,0.0,0.0,96,0.00,,,0.00,WUHU216DAVISVP2,2013-09-26 08:48:00,
2013-09-26 04:53:00,48.4,47.3,30.02,SE,137,0.0,0.0,96,0.00,,,0.00,WUHU216DAVISVP2,2013-09-26 08:53:00,
2013-09-26 04:58:00,48.4,47.3,30.02,SE,137,0.0,0.0,96,0.00,,,0.00,WUHU216DAVISVP2,2013-09-26 08:58:00,
2013-09-26 05:03:00,48.4,47.6,30.02,SE,137,0.0,0.0,97,0.00,,,0.00,WUHU216DAVISVP2,2013-09-26 09:03:00,
2013-09-26 05:08:00,48.3,47.5,30.02,SE,137,0.0,0.0,97,0.00,,,0.00,WUHU216DAVISVP2,2013-09-26 09:08:00,
2013-09-26 05:13:00,48.3,47.5,30.02,SE,137,0.0,0.0,97,0.00,,,0.00,WUHU216DAVISVP2,2013-09-26 09:13:00,
2013-09-26 05:18:00,48.2,47.4,30.02,SE,137,0.0,0.0,97,0.00,,,0.00,WUHU216DAVISVP2,2013-09-26 09:18:00,
2013-09-26 05:23:00,48.2,47.4,30.03,SE,137,0.0,0.0,97,0.00,,,0.00,WUHU216DAVISVP2,2013-09-26 09:23:00,
2013-09-26 05:28:00,48.1,47.3,30.03,SE,137,0.0,0.0,97,0.00,,,0.00,WUHU216DAVISVP2,2013-09-26 09:28:00,
2013-09-26 05:33:00,48.0,46.9,30.03,SE,137,0.0,0.0,96,0.00,,,0.00,WUHU216DAVISVP2,2013-09-26 09:33:00,
2013-09-26 05:38:00,47.9,46.8,30.03,SE,137,0.0,0.0,96,0.00,,,0.00,WUHU216DAVISVP2,2013-09-26 09:38:00,
2013-09-26 05:43:00,47.8,46.7,30.03,SE,137,0.0,0.0,96,0.00,,,0.00,WUHU216DAVISVP2,2013-09-26 09:43:00,
2013-09-26 05:48:00,47.7,46.6,30.03,SE,137,0.0,0.0,96,0.00,,,0.00,WUHU216DAVISVP2,2013-09-26 09:48:00,
2013-09-26 05:53:00,47.5,46.4,30.04,SE,137,0.0,0.0,96,0.00,,,0.00,WUHU216DAVISVP2,2013-09-26 09:53:00,
2013-09-26 05:58:00,47.5,46.4,30.04,SE,137,0.0,0.0,96,0.00,,,0.00,WUHU216DAVISVP2,2013-09-26 09:58:00,
2013-09-26 06:03:00,47.4,46.3,30.04,SE,137,0.0,0.0,96,0.00,,,0.00,WUHU216DAVISVP2,2013-09-26 10:03:00,
2013-09-26 06:08:00,47.3,46.2,30.04,SE,137,0.0,0.0,96,0.00,,,0.00,WUHU216DAVISVP2,2013-09-26 10:08:00,
2013-09-26 06:13:00,47.3,46.2,30.04,SE,137,0.0,0.0,96,0.00,,,0.00,WUHU216DAVISVP2,2013-09-26 10:13:00,
2013-09-26 06:18:00,47.2,46.4,30.04,SE,137,0.0,0.0,97,0.00,,,0.00,WUHU216DAVISVP2,2013-09-26 10:18:00,
2013-09-26 06:23:00,47.2,46.4,30.04,SE,137,0.0,0.0,97,0.00,,,0.00,WUHU216DAVISVP2,2013-09-26 10:23:00,
2013-09-26 06:28:00,47.1,46.3,30.05,SE,137,0.0,0.0,97,0.00,,,0.00,WUHU216DAVISVP2,2013-09-26 10:28:00,
2013-09-26 06:33:00,47.1,46.3,30.05,SE,137,0.0,0.0,97,0.00,,,0.00,WUHU216DAVISVP2,2013-09-26 10:33:00,
2013-09-26 06:38:00,46.9,46.1,30.05,SE,137,0.0,0.0,97,0.00,,,0.00,WUHU216DAVISVP2,2013-09-26 10:38:00,
2013-09-26 06:43:00,46.8,45.7,30.05,SE,137,0.0,0.0,96,0.00,,,0.00,WUHU216DAVISVP2,2013-09-26 10:43:00,
2013-09-26 06:48:00,46.7,45.6,30.06,SE,137,0.0,0.0,96,0.00,,,0.00,WUHU216DAVISVP2,2013-09-26 10:48:00,
2013-09-26 06:53:00,46.5,45.7,30.06,SE,137,0.0,0.0,97,0.00,,,0.00,WUHU216DAVISVP2,2013-09-26 10:53:00,
2013-09-26 06:58:00,46.4,45.3,30.06,SE,137,0.0,0.0,96,0.00,,,0.00,WUHU216DAVISVP2,2013-09-26 10:58:00,
2013-09-26 07:03:00,46.3,45.2,30.06,SE,137,0.0,0.0,96,0.00,,,0.00,WUHU216DAVISVP2,2013-09-26 11:03:00,
2013-09-26 07:08:00,46.2,45.1,30.06,SE,137,0.0,0.0,96,0.00,,,0.00,WUHU216DAVISVP2,2013-09-26 11:08:00,
2013-09-26 07:13:00,46.2,45.4,30.06,SE,137,0.0,0.0,97,0.00,,,0.00,WUHU216DAVISVP2,2013-09-26 11:13:00,
2013-09-26 07:18:00,46.2,45.4,30.07,SE,137,0.0,0.0,97,0.00,,,0.00,WUHU216DAVISVP2,2013-09-26 11:18:00,
2013-09-26 07:23:00,46.3,45.5,30.07,SE,137,0.0,0.0,97,0.00,,,0.00,WUHU216DAVISVP2,2013-09-26 11:23:00,
2013-09-26 07:28:00,46.4,45.6,30.07,SE,137,0.0,0.0,97,0.00,,,0.00,WUHU216DAVISVP2,2013-09-26 11:28:00,
2013-09-26 07:33:00,46.4,45.6,30.07,SE,137,0.0,0.0,97,0.00,,,0.00,WUHU216DAVISVP2,2013-09-26 11:33:00,
2013-09-26 07:38:00,46.4,45.6,30.07,SE,137,0.0,0.0,97,0.00,,,0.00,WUHU216DAVISVP2,2013-09-26 11:38:00,
2013-09-26 07:43:00,46.3,45.5,30.07,SE,137,0.0,0.0,97,0.00,,,0.00,WUHU216DAVISVP2,2013-09-26 11:43:00,
2013-09-26 07:48:00,46.5,45.7,30.07,SE,137,0.0,0.0,97,0.00,,,0.00,WUHU216DAVISVP2,2013-09-26 11:48:00,
2013-09-26 07:53:00,46.6,45.8,30.08,SE,137,0.0,0.0,97,0.00,,,0.00,WUHU216DAVISVP2,2013-09-26 11:53:00,
2013-09-26 07:58:00,46.7,45.9,30.08,SE,137,0.0,0.0,97,0.00,,,0.00,WUHU216DAVISVP2,2013-09-26 11:58:00,
2013-09-26 08:03:00,46.9,46.1,30.08,SE,137,0.0,0.0,97,0.00,,,0.00,WUHU216DAVISVP2,2013-09-26 12:03:00,
2013-09-26 08:08:00,47.2,46.4,30.08,SE,137,0.0,0.0,97,0.00,,,0.00,WUHU216DAVISVP2,2013-09-26 12:08:00,
2013-09-26 08:13:00,47.3,46.7,30.08,SE,137,0.0,0.0,98,0.00,,,0.00,WUHU216DAVISVP2,2013-09-26 12:13:00,
2013-09-26 08:18:00,47.5,46.9,30.08,SE,137,0.0,0.0,98,0.00,,,0.00,WUHU216DAVISVP2,2013-09-26 12:18:00,
2013-09-26 08:23:00,47.7,47.1,30.08,SE,137,0.0,0.0,98,0.00,,,0.00,WUHU216DAVISVP2,2013-09-26 12:23:00,
2013-09-26 08:28:00,48.0,47.4,30.08,SE,137,0.0,0.0,98,0.00,,,0.00,WUHU216DAVISVP2,2013-09-26 12:28:00,
2013-09-26 08:33:00,48.3,47.7,30.08,SE,137,0.0,0.0,98,0.00,,,0.00,WUHU216DAVISVP2,2013-09-26 12:33:00,
2013-09-26 08:38:00,48.7,48.1,30.08,SE,137,0.0,0.0,98,0.00,,,0.00,WUHU216DAVISVP2,2013-09-26 12:38:00,
2013-09-26 08:43:00,49.0,48.4,30.08,SE,137,0.0,0.0,98,0.00,,,0.00,WUHU216DAVISVP2,2013-09-26 12:43:00,
2013-09-26 08:48:00,49.4,48.8,30.08,SE,137,0.0,0.0,98,0.00,,,0.00,WUHU216DAVISVP2,2013-09-26 12:48:00,
2013-09-26 08:53:00,49.7,49.1,30.08,SE,137,0.0,0.0,98,0.00,,,0.00,WUHU216DAVISVP2,2013-09-26 12:53:00,
2013-09-26 08:58:00,50.1,49.5,30.09,SE,137,0.0,0.0,98,0.00,,,0.00,WUHU216DAVISVP2,2013-09-26 12:58:00,
2013-09-26 09:03:00,50.7,50.1,30.09,SE,137,0.0,0.0,98,0.00,,,0.00,WUHU216DAVISVP2,2013-09-26 13:03:00,
2013-09-26 09:08:00,51.3,50.7,30.09,SE,137,0.0,0.0,98,0.00,,,0.00,WUHU216DAVISVP2,2013-09-26 13:08:00,
2013-09-26 09:13:00,51.9,51.3,30.09,SE,137,0.0,0.0,98,0.00,,,0.00,WUHU216DAVISVP2,2013-09-26 13:13:00,
2013-09-26 09:18:00,52.4,51.8,30.09,SE,137,0.0,0.0,98,0.00,,,0.00,WUHU216DAVISVP2,2013-09-26 13:18:00,
2013-09-26 09:23:00,52.8,52.2,30.09,SE,137,0.0,0.0,98,0.00,,,0.00,WUHU216DAVISVP2,2013-09-26 13:23:00,
2013-09-26 09:28:00,53.4,52.8,30.09,SE,137,0.0,0.0,98,0.00,,,0.00,WUHU216DAVISVP2,2013-09-26 13:28:00,
2013-09-26 09:33:00,53.8,53.2,30.10,SE,137,0.0,0.0,98,0.00,,,0.00,WUHU216DAVISVP2,2013-09-26 13:33:00,
2013-09-26 09:38:00,54.2,53.6,30.10,SE,137,0.0,0.0,98,0.00,,,0.00,WUHU216DAVISVP2,2013-09-26 13:38:00,
2013-09-26 09:43:00,54.6,54.0,30.10,SE,137,0.0,0.0,98,0.00,,,0.00,WUHU216DAVISVP2,2013-09-26 13:43:00,
2013-09-26 09:48:00,55.0,54.4,30.10,SE,137,0.0,0.0,98,0.00,,,0.00,WUHU216DAVISVP2,2013-09-26 13:48:00,
2013-09-26 09:53:00,55.4,54.8,30.10,SE,137,0.0,0.0,98,0.00,,,0.00,WUHU216DAVISVP2,2013-09-26 13:53:00,
2013-09-26 09:58:00,55.9,55.3,30.10,SE,137,0.0,0.0,98,0.00,,,0.00,WUHU216DAVISVP2,2013-09-26 13:58:00,
2013-09-26 10:03:00,56.4,55.8,30.10,SE,137,0.0,0.0,98,0.00,,,0.00,WUHU216DAVISVP2,2013-09-26 14:03:00,
2013-09-26 10:08:00,57.1,56.5,30.10,SE,137,0.0,0.0,98,0.00,,,0.00,WUHU216DAVISVP2,2013-09-26 14:08:00,
2013-09-26 10:13:00,57.6,57.0,30.10,SE,137,0.0,0.0,98,0.00,,,0.00,WUHU216DAVISVP2,2013-09-26 14:13:00,
2013-09-26 10:18:00,58.2,57.3,30.11,SE,137,0.0,0.0,97,0.00,,,0.00,WUHU216DAVISVP2,2013-09-26 14:18:00,
2013-09-26 10:23:00,58.8,57.0,30.11,SE,137,0.0,2.0,94,0.00,,,0.00,WUHU216DAVISVP2,2013-09-26 14:23:00,
2013-09-26 10:28:00,59.6,56.3,30.11,ESE,103,0.0,4.0,89,0.00,,,0.00,WUHU216DAVISVP2,2013-09-26 14:28:00,
2013-09-26 10:33:00,60.3,56.4,30.11,ESE,103,0.0,4.0,87,0.00,,,0.00,WUHU216DAVISVP2,2013-09-26 14:33:00,
2013-09-26 10:38:00,61.1,56.9,30.11,NE,49,2.0,4.0,86,0.00,,,0.00,WUHU216DAVISVP2,2013-09-26 14:38:00,
2013-09-26 10:43:00,61.8,56.0,30.11,NW,322,0.0,4.0,81,0.00,,,0.00,WUHU216DAVISVP2,2013-09-26 14:43:00,
2013-09-26 10:48:00,62.5,55.6,30.11,NE,52,4.0,6.0,78,0.00,,,0.00,WUHU216DAVISVP2,2013-09-26 14:48:00,
2013-09-26 10:53:00,63.2,57.0,30.11,NE,53,0.0,6.0,80,0.00,,,0.00,WUHU216DAVISVP2,2013-09-26 14:53:00,
2013-09-26 10:58:00,63.8,56.5,30.11,NE,53,0.0,4.0,77,0.00,,,0.00,WUHU216DAVISVP2,2013-09-26 14:58:00,
2013-09-26 11:03:00,64.2,56.6,30.11,NW,310,0.0,4.0,76,0.00,,,0.00,WUHU216DAVISVP2,2013-09-26 15:03:00,
2013-09-26 11:08:00,64.6,56.6,30.11,NE,49,0.0,4.0,75,0.00,,,0.00,WUHU216DAVISVP2,2013-09-26 15:08:00,
2013-09-26 11:13:00,65.1,56.7,30.11,NE,48,0.0,4.0,74,0.00,,,0.00,WUHU216DAVISVP2,2013-09-26 15:13:00,
2013-09-26 11:18:00,65.7,56.9,30.11,ENE,63,0.0,8.0,73,0.00,,,0.00,WUHU216DAVISVP2,2013-09-26 15:18:00,
2013-09-26 11:23:00,66.1,56.6,30.11,NE,36,0.0,8.0,71,0.00,,,0.00,WUHU216DAVISVP2,2013-09-26 15:23:00,
2013-09-26 11:28:00,66.3,55.6,30.11,NW,315,2.0,6.0,68,0.00,,,0.00,WUHU216DAVISVP2,2013-09-26 15:28:00,
2013-09-26 11:33:00,66.6,56.7,30.11,ENE,78,0.0,4.0,70,0.00,,,0.00,WUHU216DAVISVP2,2013-09-26 15:33:00,
2013-09-26 11:38:00,67.0,54.6,30.11,NW,320,0.0,6.0,64,0.00,,,0.00,WUHU216DAVISVP2,2013-09-26 15:38:00,
2013-09-26 11:43:00,67.4,55.0,30.11,North,11,2.0,6.0,64,0.00,,,0.00,WUHU216DAVISVP2,2013-09-26 15:43:00,
2013-09-26 11:48:00,67.7,54.4,30.11,North,360,4.0,6.0,62,0.00,,,0.00,WUHU216DAVISVP2,2013-09-26 15:48:00,
2013-09-26 11:53:00,68.1,54.3,30.11,NE,35,2.0,6.0,61,0.00,,,0.00,WUHU216DAVISVP2,2013-09-26 15:53:00,
2013-09-26 11:58:00,68.3,55.0,30.11,NE,34,2.0,6.0,62,0.00,,,0.00,WUHU216DAVISVP2,2013-09-26 15:58:00,
2013-09-26 12:03:00,68.7,54.4,30.11,ENE,65,0.0,6.0,60,0.00,,,0.00,WUHU216DAVISVP2,2013-09-26 16:03:00,
2013-09-26 12:08:00,68.8,54.1,30.11,ENE,61,4.0,6.0,59,0.00,,,0.00,WUHU216DAVISVP2,2013-09-26 16:08:00,
2013-09-26 12:13:00,68.8,54.1,30.11,NE,39,0.0,8.0,59,0.00,,,0.00,WUHU216DAVISVP2,2013-09-26 16:13:00,
2013-09-26 12:18:00,68.7,53.0,30.11,NNW,344,4.0,8.0,57,0.00,,,0.00,WUHU216DAVISVP2,2013-09-26 16:18:00,
2013-09-26 12:23:00,68.9,53.2,30.11,ENE,62,2.0,8.0,57,0.00,,,0.00,WUHU216DAVISVP2,2013-09-26 16:23:00,
2013-09-26 12:28:00,69.1,51.9,30.11,East,93,4.0,10.0,54,0.00,,,0.00,WUHU216DAVISVP2,2013-09-26 16:28:00,
2013-09-26 12:33:00,69.4,52.7,30.11,NE,37,0.0,10.0,55,0.00,,,0.00,WUHU216DAVISVP2,2013-09-26 16:33:00,
2013-09-26 12:38:00,69.5,52.8,30.11,NNE,17,0.0,6.0,55,0.00,,,0.00,WUHU216DAVISVP2,2013-09-26 16:38:00,
2013-09-26 12:43:00,69.8,53.5,30.11,ENE,65,0.0,8.0,56,0.00,,,0.00,WUHU216DAVISVP2,2013-09-26 16:43:00,
2013-09-26 12:48:00,70.3,55.5,30.11,SE,137,2.0,8.0,59,0.00,,,0.00,WUHU216DAVISVP2,2013-09-26 16:48:00,
2013-09-26 12:53:00,70.8,55.5,30.11,ENE,58,8.0,10.0,58,0.00,,,0.00,WUHU216DAVISVP2,2013-09-26 16:53:00,
2013-09-26 12:58:00,70.3,54.5,30.11,SSE,164,6.0,10.0,57,0.00,,,0.00,WUHU216DAVISVP2,2013-09-26 16:58:00,
2013-09-26 13:03:00,70.1,54.8,30.11,NW,322,2.0,10.0,58,0.00,,,0.00,WUHU216DAVISVP2,2013-09-26 17:03:00,
2013-09-26 13:08:00,70.1,53.8,30.11,WNW,282,4.0,12.0,56,0.00,,,0.00,WUHU216DAVISVP2,2013-09-26 17:08:00,
2013-09-26 13:13:00,70.0,55.7,30.11,NNE,22,6.0,12.0,60,0.00,,,0.00,WUHU216DAVISVP2,2013-09-26 17:13:00,
2013-09-26 13:18:00,70.2,54.4,30.11,North,360,2.0,6.0,57,0.00,,,0.00,WUHU216DAVISVP2,2013-09-26 17:18:00,
2013-09-26 13:23:00,70.5,55.2,30.11,ENE,58,2.0,6.0,58,0.00,,,0.00,WUHU216DAVISVP2,2013-09-26 17:23:00,
2013-09-26 13:28:00,70.7,53.9,30.11,North,360,0.0,8.0,55,0.00,,,0.00,WUHU216DAVISVP2,2013-09-26 17:28:00,
2013-09-26 13:33:00,70.7,53.9,30.11,ENE,58,6.0,8.0,55,0.00,,,0.00,WUHU216DAVISVP2,2013-09-26 17:33:00,
2013-09-26 13:38:00,70.5,52.7,30.11,North,11,2.0,6.0,53,0.00,,,0.00,WUHU216DAVISVP2,2013-09-26 17:38:00,
2013-09-26 13:43:00,70.6,53.8,30.10,ESE,122,0.0,6.0,55,0.00,,,0.00,WUHU216DAVISVP2,2013-09-26 17:43:00,
2013-09-26 13:48:00,71.5,54.6,30.10,SE,145,4.0,6.0,55,0.00,,,0.00,WUHU216DAVISVP2,2013-09-26 17:48:00,
2013-09-26 13:53:00,71.7,52.1,30.10,East,96,2.0,12.0,50,0.00,,,0.00,WUHU216DAVISVP2,2013-09-26 17:53:00,
2013-09-26 13:58:00,71.9,54.0,30.10,NNE,19,2.0,12.0,53,0.00,,,0.00,WUHU216DAVISVP2,2013-09-26 17:58:00,
2013-09-26 14:03:00,71.5,51.9,30.10,SE,146,2.0,8.0,50,0.00,,,0.00,WUHU216DAVISVP2,2013-09-26 18:03:00,
2013-09-26 14:08:00,71.5,51.4,30.09,SSE,157,4.0,8.0,49,0.00,,,0.00,WUHU216DAVISVP2,2013-09-26 18:08:00,
2013-09-26 14:13:00,71.7,51.0,30.09,NNE,23,4.0,8.0,48,0.00,,,0.00,WUHU216DAVISVP2,2013-09-26 18:13:00,
2013-09-26 14:18:00,71.6,51.5,30.09,SE,141,2.0,8.0,49,0.00,,,0.00,WUHU216DAVISVP2,2013-09-26 18:18:00,
2013-09-26 14:23:00,72.0,54.0,30.09,ESE,107,2.0,8.0,53,0.00,,,0.00,WUHU216DAVISVP2,2013-09-26 18:23:00,
2013-09-26 14:28:00,72.4,51.0,30.09,NNW,335,0.0,6.0,47,0.00,,,0.00,WUHU216DAVISVP2,2013-09-26 18:28:00,
2013-09-26 14:33:00,73.0,52.2,30.09,NE,46,2.0,6.0,48,0.00,,,0.00,WUHU216DAVISVP2,2013-09-26 18:33:00,
2013-09-26 14:38:00,73.3,50.7,30.09,SE,140,2.0,12.0,45,0.00,,,0.00,WUHU216DAVISVP2,2013-09-26 18:38:00,
2013-09-26 14:43:00,73.5,50.2,30.10,East,94,6.0,12.0,44,0.00,,,0.00,WUHU216DAVISVP2,2013-09-26 18:43:00,
2013-09-26 14:48:00,73.3,49.4,30.10,NNE,15,4.0,10.0,43,0.00,,,0.00,WUHU216DAVISVP2,2013-09-26 18:48:00,
2013-09-26 14:53:00,72.9,48.4,30.10,North,355,4.0,10.0,42,0.00,,,0.00,WUHU216DAVISVP2,2013-09-26 18:53:00,
2013-09-26 14:58:00,72.4,48.6,30.10,East,88,2.0,12.0,43,0.00,,,0.00,WUHU216DAVISVP2,2013-09-26 18:58:00,
2013-09-26 15:03:00,72.4,48.6,30.10,SE,129,4.0,12.0,43,0.00,,,0.00,WUHU216DAVISVP2,2013-09-26 19:03:00,
2013-09-26 15:08:00,72.4,51.0,30.10,NE,46,0.0,10.0,47,0.00,,,0.00,WUHU216DAVISVP2,2013-09-26 19:08:00,
2013-09-26 15:13:00,72.7,51.9,30.10,NE,53,4.0,10.0,48,0.00,,,0.00,WUHU216DAVISVP2,2013-09-26 19:13:00,
2013-09-26 15:18:00,73.0,52.8,30.10,North,5,2.0,8.0,49,0.00,,,0.00,WUHU216DAVISVP2,2013-09-26 19:18:00,
2013-09-26 15:23:00,73.1,51.7,30.10,NW,304,2.0,8.0,47,0.00,,,0.00,WUHU216DAVISVP2,2013-09-26 19:23:00,
2013-09-26 15:28:00,72.9,50.9,30.10,North,5,0.0,14.0,46,0.00,,,0.00,WUHU216DAVISVP2,2013-09-26 19:28:00,
2013-09-26 15:33:00,72.8,50.8,30.10,East,101,2.0,16.0,46,0.00,,,0.00,WUHU216DAVISVP2,2013-09-26 19:33:00,
2013-09-26 15:38:00,72.8,51.4,30.10,NE,51,4.0,16.0,47,0.00,,,0.00,WUHU216DAVISVP2,2013-09-26 19:38:00,
2013-09-26 15:43:00,72.3,50.4,30.10,SE,126,6.0,10.0,46,0.00,,,0.00,WUHU216DAVISVP2,2013-09-26 19:43:00,
2013-09-26 15:48:00,72.0,51.3,30.10,ENE,62,4.0,10.0,48,0.00,,,0.00,WUHU216DAVISVP2,2013-09-26 19:48:00,
2013-09-26 15:53:00,71.8,52.2,30.10,NE,44,2.0,10.0,50,0.00,,,0.00,WUHU216DAVISVP2,2013-09-26 19:53:00,
2013-09-26 15:58:00,71.7,51.6,30.10,ENE,67,4.0,12.0,49,0.00,,,0.00,WUHU216DAVISVP2,2013-09-26 19:58:00,
2013-09-26 16:03:00,71.5,51.4,30.10,NE,40,2.0,12.0,49,0.00,,,0.00,WUHU216DAVISVP2,2013-09-26 20:03:00,
2013-09-26 16:08:00,71.6,49.7,30.10,ESE,113,4.0,12.0,46,0.00,,,0.00,WUHU216DAVISVP2,2013-09-26 20:08:00,
2013-09-26 16:13:00,71.3,50.0,30.10,SW,221,2.0,12.0,47,0.00,,,0.00,WUHU216DAVISVP2,2013-09-26 20:13:00,
2013-09-26 16:18:00,71.3,51.8,30.11,East,98,2.0,8.0,50,0.00,,,0.00,WUHU216DAVISVP2,2013-09-26 20:18:00,
2013-09-26 16:23:00,70.9,50.3,30.11,North,5,2.0,14.0,48,0.00,,,0.00,WUHU216DAVISVP2,2013-09-26 20:23:00,
2013-09-26 16:28:00,70.9,51.9,30.11,ESE,123,2.0,14.0,51,0.00,,,0.00,WUHU216DAVISVP2,2013-09-26 20:28:00,
2013-09-26 16:33:00,71.2,52.2,30.11,South,185,0.0,8.0,51,0.00,,,0.00,WUHU216DAVISVP2,2013-09-26 20:33:00,
2013-09-26 16:39:00,71.4,51.3,30.11,ESE,105,2.0,8.0,49,0.00,,,0.00,WUHU216DAVISVP2,2013-09-26 20:39:00,
2013-09-26 16:44:00,71.3,50.6,30.11,NE,42,4.0,6.0,48,0.00,,,0.00,WUHU216DAVISVP2,2013-09-26 20:44:00,
2013-09-26 16:49:00,71.0,52.0,30.11,NE,48,6.0,10.0,51,0.00,,,0.00,WUHU216DAVISVP2,2013-09-26 20:49:00,
2013-09-26 16:54:00,70.5,49.9,30.11,ENE,61,0.0,10.0,48,0.00,,,0.00,WUHU216DAVISVP2,2013-09-26 20:54:00,
2013-09-26 16:59:00,70.4,52.0,30.11,ENE,59,0.0,8.0,52,0.00,,,0.00,WUHU216DAVISVP2,2013-09-26 20:59:00,
2013-09-26 17:04:00,70.7,50.6,30.11,NE,34,2.0,8.0,49,0.00,,,0.00,WUHU216DAVISVP2,2013-09-26 21:04:00,
2013-09-26 17:09:00,70.5,51.0,30.11,NW,325,0.0,10.0,50,0.00,,,0.00,WUHU216DAVISVP2,2013-09-26 21:09:00,
2013-09-26 17:14:00,70.1,51.2,30.11,SE,130,4.0,10.0,51,0.00,,,0.00,WUHU216DAVISVP2,2013-09-26 21:14:00,
2013-09-26 17:19:00,69.4,48.9,30.12,East,79,2.0,12.0,48,0.00,,,0.00,WUHU216DAVISVP2,2013-09-26 21:19:00,
2013-09-26 17:24:00,68.8,50.5,30.12,NNE,15,10.0,12.0,52,0.00,,,0.00,WUHU216DAVISVP2,2013-09-26 21:24:00,
2013-09-26 17:29:00,68.1,48.2,30.12,NNE,22,2.0,10.0,49,0.00,,,0.00,WUHU216DAVISVP2,2013-09-26 21:29:00,
2013-09-26 17:34:00,67.7,48.4,30.12,ENE,58,4.0,10.0,50,0.00,,,0.00,WUHU216DAVISVP2,2013-09-26 21:34:00,
2013-09-26 17:39:00,67.4,48.2,30.12,East,88,4.0,12.0,50,0.00,,,0.00,WUHU216DAVISVP2,2013-09-26 21:39:00,
2013-09-26 17:44:00,67.0,48.3,30.12,SE,136,6.0,12.0,51,0.00,,,0.00,WUHU216DAVISVP2,2013-09-26 21:44:00,
2013-09-26 17:49:00,66.6,49.0,30.12,NNE,29,2.0,8.0,53,0.00,,,0.00,WUHU216DAVISVP2,2013-09-26 21:49:00,
2013-09-26 17:54:00,66.2,48.1,30.12,ESE,106,6.0,8.0,52,0.00,,,0.00,WUHU216DAVISVP2,2013-09-26 21:54:00,
2013-09-26 17:59:00,65.9,47.8,30.12,SE,126,0.0,8.0,52,0.00,,,0.00,WUHU216DAVISVP2,2013-09-26 21:59:00,
2013-09-26 18:04:00,65.7,48.2,30.12,NW,313,0.0,8.0,53,0.00,,,0.00,WUHU216DAVISVP2,2013-09-26 22:04:00,
2013-09-26 18:09:00,65.5,48.5,30.13,NW,319,0.0,6.0,54,0.00,,,0.00,WUHU216DAVISVP2,2013-09-26 22:09:00,
2013-09-26 18:14:00,65.2,48.2,30.13,NE,37,0.0,6.0,54,0.00,,,0.00,WUHU216DAVISVP2,2013-09-26 22:14:00,
2013-09-26 18:19:00,64.9,47.9,30.13,NE,38,0.0,6.0,54,0.00,,,0.00,WUHU216DAVISVP2,2013-09-26 22:19:00,
2013-09-26 18:24:00,64.7,48.3,30.13,East,98,0.0,12.0,55,0.00,,,0.00,WUHU216DAVISVP2,2013-09-26 22:24:00,
2013-09-26 18:29:00,64.4,48.5,30.13,North,5,0.0,12.0,56,0.00,,,0.00,WUHU216DAVISVP2,2013-09-26 22:29:00,
2013-09-26 18:34:00,64.2,48.8,30.13,East,81,0.0,2.0,57,0.00,,,0.00,WUHU216DAVISVP2,2013-09-26 22:34:00,
2013-09-26 18:39:00,63.9,49.9,30.13,East,81,0.0,2.0,60,0.00,,,0.00,WUHU216DAVISVP2,2013-09-26 22:39:00,
2013-09-26 18:44:00,63.5,50.0,30.13,East,81,0.0,0.0,61,0.00,,,0.00,WUHU216DAVISVP2,2013-09-26 22:44:00,
2013-09-26 18:49:00,63.1,49.6,30.13,East,81,0.0,0.0,61,0.00,,,0.00,WUHU216DAVISVP2,2013-09-26 22:49:00,
2013-09-26 18:54:00,62.6,50.0,30.13,ESE,113,0.0,2.0,63,0.00,,,0.00,WUHU216DAVISVP2,2013-09-26 22:54:00,
2013-09-26 18:59:00,62.2,49.2,30.14,ESE,113,0.0,2.0,62,0.00,,,0.00,WUHU216DAVISVP2,2013-09-26 22:59:00,
2013-09-26 19:04:00,61.9,49.7,30.14,ESE,113,0.0,2.0,64,0.00,,,0.00,WUHU216DAVISVP2,2013-09-26 23:04:00,
2013-09-26 19:09:00,61.6,49.5,30.14,ESE,113,0.0,2.0,64,0.00,,,0.00,WUHU216DAVISVP2,2013-09-26 23:09:00,
2013-09-26 19:14:00,61.2,49.5,30.14,ESE,113,0.0,0.0,65,0.00,,,0.00,WUHU216DAVISVP2,2013-09-26 23:14:00,
2013-09-26 19:19:00,60.7,49.8,30.13,ESE,113,0.0,0.0,67,0.00,,,0.00,WUHU216DAVISVP2,2013-09-26 23:19:00,
2013-09-26 19:24:00,60.0,49.6,30.13,ESE,113,0.0,0.0,68,0.00,,,0.00,WUHU216DAVISVP2,2013-09-26 23:24:00,
2013-09-26 19:29:00,59.3,49.3,30.13,ESE,113,0.0,0.0,69,0.00,,,0.00,WUHU216DAVISVP2,2013-09-26 23:29:00,
2013-09-26 19:34:00,58.7,49.8,30.13,ESE,113,0.0,0.0,72,0.00,,,0.00,WUHU216DAVISVP2,2013-09-26 23:34:00,
2013-09-26 19:39:00,58.2,49.7,30.13,ESE,113,0.0,0.0,73,0.00,,,0.00,WUHU216DAVISVP2,2013-09-26 23:39:00,
2013-09-26 19:44:00,57.7,49.2,30.13,ESE,120,0.0,2.0,73,0.00,,,0.00,WUHU216DAVISVP2,2013-09-26 23:44:00,
2013-09-26 19:49:00,57.3,49.2,30.13,SE,140,0.0,2.0,74,0.00,,,0.00,WUHU216DAVISVP2,2013-09-26 23:49:00,
2013-09-26 19:54:00,57.3,49.2,30.13,SE,138,0.0,2.0,74,0.00,,,0.00,WUHU216DAVISVP2,2013-09-26 23:54:00,
2013-09-26 19:59:00,57.2,49.4,30.13,SE,138,0.0,2.0,75,0.00,,,0.00,WUHU216DAVISVP2,2013-09-26 23:59:00,
2013-09-26 20:04:00,57.2,50.1,30.13,SE,138,0.0,2.0,77,0.00,,,0.00,WUHU216DAVISVP2,2013-09-27 00:04:00,
2013-09-26 20:10:00,57.0,50.3,30.13,NE,47,0.0,4.0,78,0.00,,,0.00,WUHU216DAVISVP2,2013-09-27 00:10:00,
2013-09-26 20:15:00,56.5,49.5,30.13,NE,47,0.0,4.0,77,0.00,,,0.00,WUHU216DAVISVP2,2013-09-27 00:15:00,
2013-09-26 20:20:00,56.0,49.6,30.13,NE,47,0.0,0.0,79,0.00,,,0.00,WUHU216DAVISVP2,2013-09-27 00:20:00,
2013-09-26 20:25:00,55.6,49.6,30.14,SE,135,0.0,6.0,80,0.00,,,0.00,WUHU216DAVISVP2,2013-09-27 00:25:00,
2013-09-26 20:30:00,55.4,49.4,30.14,SE,135,0.0,6.0,80,0.00,,,0.00,WUHU216DAVISVP2,2013-09-27 00:30:00,
2013-09-26 20:35:00,55.2,49.8,30.14,SE,135,0.0,2.0,82,0.00,,,0.00,WUHU216DAVISVP2,2013-09-27 00:35:00,
2013-09-26 20:40:00,54.9,49.9,30.14,SE,135,0.0,2.0,83,0.00,,,0.00,WUHU216DAVISVP2,2013-09-27 00:40:00,
2013-09-26 20:45:00,54.6,49.9,30.14,SE,135,0.0,0.0,84,0.00,,,0.00,WUHU216DAVISVP2,2013-09-27 00:45:00,
2013-09-26 20:50:00,54.4,49.7,30.14,SE,135,0.0,0.0,84,0.00,,,0.00,WUHU216DAVISVP2,2013-09-27 00:50:00,
2013-09-26 20:55:00,54.1,49.7,30.14,SE,135,0.0,0.0,85,0.00,,,0.00,WUHU216DAVISVP2,2013-09-27 00:55:00,
2013-09-26 21:00:00,53.9,49.8,30.14,SE,135,0.0,0.0,86,0.00,,,0.00,WUHU216DAVISVP2,2013-09-27 01:00:00,
2013-09-26 21:05:00,53.8,50.0,30.14,SE,134,0.0,2.0,87,0.00,,,0.00,WUHU216DAVISVP2,2013-09-27 01:05:00,
2013-09-26 21:10:00,53.8,50.0,30.14,SE,134,0.0,2.0,87,0.00,,,0.00,WUHU216DAVISVP2,2013-09-27 01:10:00,
2013-09-26 21:15:00,53.9,50.1,30.15,SE,134,0.0,2.0,87,0.00,,,0.00,WUHU216DAVISVP2,2013-09-27 01:15:00,
2013-09-26 21:20:00,54.0,50.2,30.15,SE,134,0.0,2.0,87,0.00,,,0.00,WUHU216DAVISVP2,2013-09-27 01:20:00,
2013-09-26 21:25:00,54.1,50.0,30.14,SW,229,0.0,4.0,86,0.00,,,0.00,WUHU216DAVISVP2,2013-09-27 01:25:00,
2013-09-26 21:30:00,54.2,50.1,30.15,SW,229,0.0,4.0,86,0.00,,,0.00,WUHU216DAVISVP2,2013-09-27 01:30:00,
2013-09-26 21:35:00,54.2,50.4,30.15,ESE,116,0.0,2.0,87,0.00,,,0.00,WUHU216DAVISVP2,2013-09-27 01:35:00,
2013-09-26 21:40:00,54.3,50.5,30.15,ENE,65,0.0,4.0,87,0.00,,,0.00,WUHU216DAVISVP2,2013-09-27 01:40:00,
2013-09-26 21:45:00,54.1,50.3,30.16,ENE,65,0.0,4.0,87,0.00,,,0.00,WUHU216DAVISVP2,2013-09-27 01:45:00,
2013-09-26 21:50:00,53.7,50.2,30.16,ENE,65,0.0,0.0,88,0.00,,,0.00,WUHU216DAVISVP2,2013-09-27 01:50:00,
2013-09-26 21:55:00,53.4,49.9,30.16,ENE,65,0.0,0.0,88,0.00,,,0.00,WUHU216DAVISVP2,2013-09-27 01:55:00,
2013-09-26 22:00:00,53.1,49.9,30.16,ENE,65,0.0,0.0,89,0.00,,,0.00,WUHU216DAVISVP2,2013-09-27 02:00:00,
2013-09-26 22:05:00,52.9,50.0,30.16,ENE,65,0.0,2.0,90,0.00,,,0.00,WUHU216DAVISVP2,2013-09-27 02:05:00,
2013-09-26 22:10:00,52.8,49.9,30.17,ENE,65,0.0,2.0,90,0.00,,,0.00,WUHU216DAVISVP2,2013-09-27 02:10:00,
2013-09-26 22:15:00,52.6,49.4,30.16,ENE,65,0.0,0.0,89,0.00,,,0.00,WUHU216DAVISVP2,2013-09-27 02:15:00,
2013-09-26 22:20:00,52.4,49.5,30.16,ENE,65,0.0,0.0,90,0.00,,,0.00,WUHU216DAVISVP2,2013-09-27 02:20:00,
2013-09-26 22:25:00,52.3,49.4,30.16,ENE,65,0.0,0.0,90,0.00,,,0.00,WUHU216DAVISVP2,2013-09-27 02:25:00,
2013-09-26 22:30:00,52.1,49.2,30.17,ENE,65,0.0,0.0,90,0.00,,,0.00,WUHU216DAVISVP2,2013-09-27 02:30:00,
2013-09-26 22:35:00,52.0,49.1,30.17,ENE,65,0.0,0.0,90,0.00,,,0.00,WUHU216DAVISVP2,2013-09-27 02:35:00,
2013-09-26 22:40:00,51.9,49.0,30.17,ENE,65,0.0,0.0,90,0.00,,,0.00,WUHU216DAVISVP2,2013-09-27 02:40:00,
2013-09-26 22:45:00,51.8,49.2,30.17,ENE,65,0.0,0.0,91,0.00,,,0.00,WUHU216DAVISVP2,2013-09-27 02:45:00,
2013-09-26 22:50:00,51.7,49.1,30.17,ENE,65,0.0,0.0,91,0.00,,,0.00,WUHU216DAVISVP2,2013-09-27 02:50:00,
2013-09-26 22:55:00,51.6,49.0,30.17,ENE,65,0.0,0.0,91,0.00,,,0.00,WUHU216DAVISVP2,2013-09-27 02:55:00,
2013-09-26 23:00:00,51.5,48.9,30.17,ENE,65,0.0,0.0,91,0.00,,,0.00,WUHU216DAVISVP2,2013-09-27 03:00:00,
2013-09-26 23:05:00,51.5,49.2,30.16,ENE,65,0.0,0.0,92,0.00,,,0.00,WUHU216DAVISVP2,2013-09-27 03:05:00,
2013-09-26 23:10:00,51.4,49.1,30.16,ENE,65,0.0,0.0,92,0.00,,,0.00,WUHU216DAVISVP2,2013-09-27 03:10:00,
2013-09-26 23:15:00,51.4,49.1,30.16,ENE,65,0.0,0.0,92,0.00,,,0.00,WUHU216DAVISVP2,2013-09-27 03:15:00,
2013-09-26 23:20:00,51.5,49.5,30.16,ENE,65,0.0,0.0,93,0.00,,,0.00,WUHU216DAVISVP2,2013-09-27 03:20:00,
2013-09-26 23:25:00,51.5,49.5,30.16,ENE,65,0.0,0.0,93,0.00,,,0.00,WUHU216DAVISVP2,2013-09-27 03:25:00,
2013-09-26 23:30:00,51.6,49.6,30.16,ENE,65,0.0,0.0,93,0.00,,,0.00,WUHU216DAVISVP2,2013-09-27 03:30:00,
2013-09-26 23:35:00,51.7,50.0,30.16,ENE,65,0.0,0.0,94,0.00,,,0.00,WUHU216DAVISVP2,2013-09-27 03:35:00,
2013-09-26 23:40:00,51.8,50.1,30.16,ENE,65,0.0,0.0,94,0.00,,,0.00,WUHU216DAVISVP2,2013-09-27 03:40:00,
2013-09-26 23:45:00,51.9,50.2,30.16,ENE,65,0.0,0.0,94,0.00,,,0.00,WUHU216DAVISVP2,2013-09-27 03:45:00,
2013-09-26 23:50:00,52.0,50.3,30.16,ENE,65,0.0,0.0,94,0.00,,,0.00,WUHU216DAVISVP2,2013-09-27 03:50:00,
2013-09-26 23:55:00,52.1,50.4,30.16,ENE,65,0.0,0.0,94,0.00,,,0.00,WUHU216DAVISVP2,2013-09-27 03:55:00,